Time;durP1;ratioP1;P1;durP2;ratioP2;P2;SDS_P1;SDS_P2;PMS_P1;PMS_P2;Temp;Humidity;BMP_temperature;BMP_pressure;BME280_temperature;BME280_humidity;BME280_pressure;Samples;Min_cycle;Max_cycle;Signal;HPM_P1;HPM_P2
2022/01/30 00:00:35;;;;;;;;;8.00;8.00;;;;;12.57;68.67;102636.41;2053566;28;47501;-61
2022/01/30 00:01:35;;;;;;;;;9.00;7.67;;;;;12.58;68.63;102638.22;2054658;28;48371;-58
2022/01/30 00:02:36;;;;;;;;;8.00;8.00;;;;;12.59;68.76;102636.44;2046036;28;47928;-60
2022/01/30 00:03:36;;;;;;;;;10.00;7.00;;;;;12.59;68.69;102628.44;2046225;28;47999;-58
2022/01/30 00:04:37;;;;;;;;;7.67;7.67;;;;;12.59;68.61;102617.81;2054027;28;47566;-60
2022/01/30 00:05:37;;;;;;;;;7.00;7.00;;;;;12.59;68.61;102615.13;2054253;28;47620;-62
2022/01/30 00:06:38;;;;;;;;;8.33;8.00;;;;;12.59;68.76;102615.13;2054541;28;45873;-61
2022/01/30 00:07:38;;;;;;;;;7.67;7.67;;;;;12.59;68.66;102616.03;2066750;28;47658;-62
2022/01/30 00:08:39;;;;;;;;;6.00;6.00;;;;;12.59;68.64;102620.47;2078610;28;47516;-61
2022/01/30 00:09:39;;;;;;;;;9.00;8.00;;;;;12.59;68.67;102621.34;2078669;28;48251;-60
2022/01/30 00:10:40;;;;;;;;;6.00;5.67;;;;;12.59;68.68;102632.00;2079087;28;47742;-61
2022/01/30 00:11:43;;;;;;;;;7.00;5.00;;;;;12.60;68.48;102627.56;2078638;28;47482;-60
2022/01/30 00:12:49;;;;;;;;;9.25;8.00;;;;;12.59;68.57;102629.34;2078480;28;47755;-59
2022/01/30 00:13:50;;;;;;;;;7.25;6.00;;;;;12.58;68.70;102624.00;2078343;28;47498;-59
2022/01/30 00:14:54;;;;;;;;;6.33;6.33;;;;;12.58;68.58;102634.66;2078531;28;47836;-60
2022/01/30 00:15:55;;;;;;;;;6.75;6.00;;;;;12.58;68.72;102632.91;2078898;28;47955;-61
2022/01/30 00:17:21;;;;;;;;;7.25;7.00;;;;;12.58;68.80;102624.91;2078528;28;47515;-60
2022/01/30 00:19:35;;;;;;;;;6.75;5.25;;;;;12.58;68.65;102618.69;2062861;28;48330;-60
2022/01/30 00:20:38;;;;;;;;;10.00;8.75;;;;;12.58;68.89;102624.91;2087507;28;48715;-58
2022/01/30 00:21:47;;;;;;;;;6.50;6.50;;;;;12.57;68.59;102620.44;2105926;28;48184;-60
2022/01/30 00:23:07;;;;;;;;;7.75;7.75;;;;;12.59;68.79;102625.78;2106463;28;47408;-61
2022/01/30 00:24:17;;;;;;;;;5.75;5.75;;;;;12.57;68.75;102623.09;2106243;28;48053;-61
2022/01/30 00:25:28;;;;;;;;;8.50;8.50;;;;;12.58;68.69;102622.25;2105617;28;47743;-60
2022/01/30 00:26:32;;;;;;;;;8.00;8.00;;;;;12.58;68.54;102630.22;2106339;28;47136;-60
2022/01/30 00:27:45;;;;;;;;;9.75;7.25;;;;;12.58;68.76;102627.56;2106140;28;47741;-60
2022/01/30 00:28:46;;;;;;;;;5.25;4.25;;;;;12.58;68.76;102616.91;2106343;28;47607;-60
2022/01/30 00:29:46;;;;;;;;;8.00;7.33;;;;;12.58;68.75;102616.91;2105638;28;47165;-57
2022/01/30 00:30:47;;;;;;;;;7.67;7.67;;;;;12.58;68.56;102614.25;2106488;28;46181;-59
2022/01/30 00:31:49;;;;;;;;;7.33;7.33;;;;;12.58;68.76;102619.56;2106180;28;47781;-58
2022/01/30 00:32:52;;;;;;;;;8.00;7.50;;;;;12.58;68.67;102616.91;2097147;28;47952;-58
2022/01/30 00:33:53;;;;;;;;;10.00;8.50;;;;;12.58;68.92;102614.25;2096834;28;48234;-62
2022/01/30 00:34:53;;;;;;;;;5.50;5.50;;;;;12.60;68.66;102614.25;2106141;28;47627;-60
2022/01/30 00:35:54;;;;;;;;;7.67;7.33;;;;;12.59;68.31;102605.38;2106134;28;47843;-62
2022/01/30 00:36:54;;;;;;;;;9.33;9.33;;;;;12.59;68.96;102612.47;2097100;28;47268;-59
2022/01/30 00:37:55;;;;;;;;;7.00;6.67;;;;;12.59;68.78;102605.38;2096998;28;47566;-61
2022/01/30 00:38:55;;;;;;;;;8.67;8.00;;;;;12.58;68.62;102606.25;2105741;28;47773;-60
2022/01/30 00:39:56;;;;;;;;;11.00;9.67;;;;;12.57;68.69;102603.56;2105578;28;47607;-60
2022/01/30 00:40:56;;;;;;;;;7.00;6.00;;;;;12.56;68.77;102602.69;2106021;28;47491;-60
2022/01/30 00:41:56;;;;;;;;;7.33;6.00;;;;;12.56;68.86;102601.78;2105811;27;47729;-60
2022/01/30 00:42:57;;;;;;;;;7.67;7.33;;;;;12.56;68.81;102610.66;2105715;28;47273;-63
2022/01/30 00:43:57;;;;;;;;;5.67;5.67;;;;;12.56;68.86;102615.09;2105864;28;46556;-61
2022/01/30 00:44:58;;;;;;;;;6.33;6.33;;;;;12.56;68.91;102613.34;2105417;28;47627;-60
2022/01/30 00:45:58;;;;;;;;;7.33;6.00;;;;;12.56;68.88;102607.13;2106025;28;47442;-59
2022/01/30 00:47:01;;;;;;;;;10.00;9.00;;;;;12.56;69.00;102608.00;2105797;28;47442;-60
2022/01/30 00:48:02;;;;;;;;;9.00;9.00;;;;;12.57;68.96;102609.78;2105898;28;48208;-59
2022/01/30 00:49:03;;;;;;;;;8.00;7.75;;;;;12.57;68.94;102606.22;2105666;27;47511;-61
2022/01/30 00:50:04;;;;;;;;;10.67;9.67;;;;;12.58;68.69;102610.69;2096780;28;47959;-53
2022/01/30 00:51:05;;;;;;;;;7.50;7.50;;;;;12.58;68.82;102611.59;2096986;28;47812;-61
2022/01/30 00:52:05;;;;;;;;;8.00;7.00;;;;;12.58;68.79;102606.25;2097126;28;47471;-60
2022/01/30 00:53:06;;;;;;;;;8.33;8.00;;;;;12.59;68.85;102612.47;2096988;28;46973;-60
2022/01/30 00:54:06;;;;;;;;;6.33;6.33;;;;;12.59;68.87;102608.03;2105750;28;48096;-58
2022/01/30 00:55:07;;;;;;;;;8.33;8.33;;;;;12.59;68.73;102609.81;2105557;28;46457;-61
2022/01/30 00:56:08;;;;;;;;;10.67;10.00;;;;;12.60;68.67;102606.25;2105900;28;48009;-59
2022/01/30 00:57:08;;;;;;;;;6.33;6.33;;;;;12.61;68.80;102605.38;2105548;28;47678;-60
2022/01/30 00:58:09;;;;;;;;;8.67;8.67;;;;;12.61;68.66;102597.38;2106131;28;47920;-60
2022/01/30 00:59:09;;;;;;;;;6.33;6.33;;;;;12.61;68.82;102598.25;2105767;28;47663;-60
2022/01/30 01:00:11;;;;;;;;;6.00;6.00;;;;;12.62;68.83;102585.84;2105450;28;47274;-62
2022/01/30 01:01:11;;;;;;;;;7.00;7.00;;;;;12.61;68.79;102582.28;2096937;28;47608;-60
2022/01/30 01:02:12;;;;;;;;;6.00;6.00;;;;;12.62;68.63;102580.50;2097341;28;45268;-60
2022/01/30 01:03:12;;;;;;;;;7.33;7.33;;;;;12.61;68.64;102587.59;2105505;28;47918;-59
2022/01/30 01:04:12;;;;;;;;;6.00;6.00;;;;;12.62;68.63;102585.84;2106311;28;47998;-59
2022/01/30 01:05:14;;;;;;;;;7.00;7.00;;;;;12.63;68.69;102587.59;2105082;27;47576;-59
2022/01/30 01:06:15;;;;;;;;;8.75;8.75;;;;;12.62;68.38;102589.38;2096745;28;48130;-61
2022/01/30 01:07:20;;;;;;;;;10.00;8.00;;;;;12.63;68.65;102588.50;2088108;28;47967;-59
2022/01/30 01:08:34;;;;;;;;;6.50;6.50;;;;;12.62;68.52;102597.38;2097087;28;47355;-58
2022/01/30 01:09:38;;;;;;;;;8.00;7.00;;;;;12.61;68.71;102584.94;2087687;28;47741;-60
2022/01/30 01:10:48;;;;;;;;;7.50;7.50;;;;;12.61;68.42;102584.94;2093282;28;47745;-58
2022/01/30 01:13:07;;;;;;;;;10.00;9.50;;;;;12.61;68.58;102581.41;2106077;28;47196;-59
2022/01/30 01:23:30;;;;;;;;;6.00;5.00;;;;;12.58;68.45;102571.63;2105782;28;48186;-61
2022/01/30 01:24:30;;;;;;;;;7.25;5.25;;;;;12.57;68.39;102569.84;2105423;28;46305;-59
2022/01/30 01:25:31;;;;;;;;;9.00;8.00;;;;;12.57;68.50;102568.94;2105450;28;47769;-59
2022/01/30 01:26:33;;;;;;;;;6.33;6.33;;;;;12.57;68.52;102577.81;2105655;28;48003;-57
2022/01/30 01:27:34;;;;;;;;;8.25;7.00;;;;;12.56;68.47;102578.72;2105591;28;48126;-60
2022/01/30 01:28:34;;;;;;;;;8.75;8.25;;;;;12.57;68.58;102577.81;2096617;28;47814;-59
2022/01/30 01:29:35;;;;;;;;;6.00;6.00;;;;;12.57;68.33;102583.16;2088363;28;47434;-60
2022/01/30 01:30:35;;;;;;;;;6.33;6.33;;;;;12.56;68.23;102576.03;2095742;28;47739;-59
2022/01/30 01:31:35;;;;;;;;;7.67;6.00;;;;;12.57;68.35;102577.81;2105123;28;48196;-56
2022/01/30 01:32:36;;;;;;;;;7.00;6.33;;;;;12.57;68.44;102576.94;2105125;28;48033;-59
2022/01/30 01:34:39;;;;;;;;;7.00;7.00;;;;;12.56;68.44;102569.84;2104912;28;47264;-61
2022/01/30 01:35:40;;;;;;;;;5.75;5.75;;;;;12.56;68.03;102577.81;2105133;28;47855;-59
2022/01/30 01:36:40;;;;;;;;;5.00;5.00;;;;;12.57;68.36;102582.25;2105692;28;47989;-59
2022/01/30 01:37:40;;;;;;;;;6.67;6.00;;;;;12.57;68.18;102575.16;2105509;28;47897;-59
2022/01/30 01:38:41;;;;;;;;;6.00;6.00;;;;;12.56;68.25;102572.50;2096303;28;46949;-58
2022/01/30 01:39:41;;;;;;;;;8.67;8.67;;;;;12.55;68.30;102578.72;2096885;28;47778;-57
2022/01/30 01:40:51;;;;;;;;;6.67;6.67;;;;;12.57;68.15;102576.94;2105100;28;47477;-59
2022/01/30 01:41:51;;;;;;;;;9.50;7.50;;;;;12.56;68.32;102576.03;2105548;28;47517;-59
2022/01/30 01:42:54;;;;;;;;;7.67;7.67;;;;;12.57;68.62;102582.25;2105269;28;47453;-59
2022/01/30 01:43:55;;;;;;;;;9.00;7.00;;;;;12.57;68.37;102575.16;2087803;28;47431;-61
2022/01/30 01:44:57;;;;;;;;;6.00;6.00;;;;;12.57;68.27;102576.94;2087913;28;48078;-60
2022/01/30 01:46:00;;;;;;;;;8.75;7.75;;;;;12.57;68.46;102576.94;2105350;28;47703;-60
2022/01/30 01:47:01;;;;;;;;;7.25;7.25;;;;;12.56;68.42;102570.72;2105638;28;47818;-59
2022/01/30 01:48:08;;;;;;;;;8.00;8.00;;;;;12.58;68.44;102568.09;2105526;28;47405;-59
2022/01/30 01:49:18;;;;;;;;;8.25;7.75;;;;;12.57;68.54;102577.81;2105303;28;47453;-60
2022/01/30 01:50:37;;;;;;;;;7.75;7.75;;;;;12.57;68.45;102571.59;2105564;28;47410;-60
2022/01/30 01:51:38;;;;;;;;;7.75;7.25;;;;;12.58;68.43;102584.06;2105329;28;48020;-59
2022/01/30 01:52:40;;;;;;;;;8.33;7.33;;;;;12.58;68.44;102581.41;2104794;28;47814;-59
2022/01/30 01:53:41;;;;;;;;;8.50;8.25;;;;;12.59;68.66;102581.41;2105292;28;47954;-58
2022/01/30 01:54:41;;;;;;;;;8.33;5.00;;;;;12.60;68.22;102583.16;2105272;28;47659;-61
2022/01/30 01:55:44;;;;;;;;;8.00;8.00;;;;;12.59;68.30;102575.19;2105849;27;47052;-59
2022/01/30 01:56:44;;;;;;;;;8.00;7.25;;;;;12.60;68.48;102576.97;2105218;28;47774;-59
2022/01/30 01:57:44;;;;;;;;;9.00;9.00;;;;;12.60;68.32;102572.50;2087083;28;47246;-59
2022/01/30 01:58:45;;;;;;;;;11.67;9.00;;;;;12.60;68.49;102576.97;2087723;28;47764;-59
2022/01/30 01:59:46;;;;;;;;;8.00;8.00;;;;;12.60;68.44;102572.50;2096763;28;48039;-59
2022/01/30 02:00:47;;;;;;;;;7.50;7.50;;;;;12.60;68.55;102582.28;2096954;28;47303;-61
2022/01/30 02:01:51;;;;;;;;;7.67;7.67;;;;;12.59;68.36;102581.41;2099042;28;48212;-60
2022/01/30 02:02:53;;;;;;;;;8.25;8.25;;;;;12.59;68.46;102586.72;2105774;28;47806;-60
2022/01/30 02:03:54;;;;;;;;;7.75;7.25;;;;;12.60;68.31;102587.63;2105733;28;47647;-60
2022/01/30 02:04:58;;;;;;;;;10.00;9.00;;;;;12.60;68.44;102580.50;2102175;28;47916;-59
2022/01/30 02:06:02;;;;;;;;;9.25;9.25;;;;;12.61;68.69;102590.28;2096797;28;47412;-58
2022/01/30 02:09:34;;;;;;;;;9.00;7.00;;;;;12.61;68.32;102573.41;2104873;28;47442;-60
2022/01/30 02:10:49;;;;;;;;;8.50;7.50;;;;;12.62;68.19;102580.50;2097054;28;47725;-60
2022/01/30 02:11:49;;;;;;;;;8.50;8.50;;;;;12.60;68.12;102576.97;2097087;28;47939;-59
2022/01/30 02:12:53;;;;;;;;;9.00;8.00;;;;;12.59;68.21;102584.06;2096964;28;47473;-60
2022/01/30 02:15:29;;;;;;;;;8.25;7.00;;;;;12.59;68.38;102584.06;2096790;28;47644;-60
2022/01/30 02:24:06;;;;;;;;;8.25;6.50;;;;;12.60;68.20;102571.63;2070742;28;47980;-60
2022/01/30 02:26:16;;;;;;;;;7.50;7.00;;;;;12.59;68.32;102568.09;2070768;28;47909;-59
2022/01/30 02:27:20;;;;;;;;;9.67;8.33;;;;;12.60;68.00;102567.19;2071044;28;47588;-59
2022/01/30 02:28:21;;;;;;;;;10.00;9.00;;;;;12.60;68.18;102571.63;2062761;28;47613;-61
2022/01/30 02:29:22;;;;;;;;;9.33;8.33;;;;;12.61;68.27;102568.97;2062633;28;47976;-58
2022/01/30 02:30:27;;;;;;;;;11.33;9.00;;;;;12.61;68.15;102562.75;2071386;28;47899;-59
2022/01/30 02:31:28;;;;;;;;;8.00;8.00;;;;;12.60;68.36;102560.97;2071337;28;48415;-60
2022/01/30 02:32:28;;;;;;;;;10.00;9.33;;;;;12.60;68.25;102560.97;2070909;28;47636;-59
2022/01/30 02:33:29;;;;;;;;;13.00;11.00;;;;;12.59;68.25;102565.41;2062068;28;47906;-59
2022/01/30 02:34:30;;;;;;;;;9.33;8.00;;;;;12.59;68.27;102562.75;2062589;28;47590;-60
2022/01/30 02:35:31;;;;;;;;;9.50;8.25;;;;;12.60;68.25;102560.97;2070981;28;47443;-60
2022/01/30 02:36:31;;;;;;;;;8.67;8.67;;;;;12.60;68.32;102566.31;2070828;28;48052;-58
2022/01/30 02:37:32;;;;;;;;;8.33;8.33;;;;;12.60;68.38;102572.50;2070768;28;47903;-60
2022/01/30 02:38:33;;;;;;;;;9.67;8.33;;;;;12.61;68.16;102566.31;2070710;28;47765;-59
2022/01/30 02:39:33;;;;;;;;;9.33;9.33;;;;;12.60;68.28;102568.97;2070865;28;46639;-59
2022/01/30 02:40:39;;;;;;;;;11.67;10.00;;;;;12.60;68.22;102571.63;2071244;28;47414;-59
2022/01/30 02:41:40;;;;;;;;;9.75;9.25;;;;;12.60;68.14;102571.63;2062398;28;48273;-60
2022/01/30 02:42:46;;;;;;;;;9.25;9.00;;;;;12.59;68.13;102569.84;2062652;28;47839;-58
2022/01/30 02:43:58;;;;;;;;;8.75;8.25;;;;;12.59;68.23;102564.53;2071043;28;47561;-60
2022/01/30 02:45:02;;;;;;;;;7.00;7.00;;;;;12.59;68.42;102559.19;2070887;28;47654;-60
2022/01/30 02:46:21;;;;;;;;;10.75;9.25;;;;;12.60;68.21;102558.31;2046493;28;45922;-59
2022/01/30 02:47:26;;;;;;;;;7.75;7.75;;;;;12.60;68.26;102556.53;2046487;28;47684;-59
2022/01/30 02:48:33;;;;;;;;;10.50;10.00;;;;;12.61;68.19;102565.41;2046383;28;47786;-60
2022/01/30 02:49:56;;;;;;;;;8.75;8.00;;;;;12.61;68.19;102570.75;2046976;28;47213;-60
2022/01/30 02:51:09;;;;;;;;;11.00;9.75;;;;;12.62;68.27;102575.19;2046501;28;47865;-59
2022/01/30 02:52:11;;;;;;;;;9.00;9.00;;;;;12.63;68.11;102574.28;2046803;28;47982;-59
2022/01/30 02:53:11;;;;;;;;;9.75;9.75;;;;;12.63;68.01;102574.28;2046495;28;48462;-63
2022/01/30 02:54:12;;;;;;;;;10.00;10.00;;;;;12.62;68.08;102570.72;2046717;28;47593;-60
2022/01/30 02:55:13;;;;;;;;;11.00;9.33;;;;;12.62;68.21;102573.41;2046576;28;47540;-61
2022/01/30 02:56:13;;;;;;;;;10.67;10.67;;;;;12.63;68.08;102576.94;2046473;28;47474;-60
2022/01/30 02:57:14;;;;;;;;;8.67;8.67;;;;;12.63;68.24;102575.16;2046760;28;48121;-60
2022/01/30 02:58:15;;;;;;;;;12.00;11.33;;;;;12.63;67.98;102575.16;2072427;28;46309;-58
2022/01/30 02:59:16;;;;;;;;;9.50;9.50;;;;;12.65;68.24;102570.72;2079195;28;48112;-61
2022/01/30 03:00:17;;;;;;;;;13.50;13.50;;;;;12.66;68.12;102576.94;2078490;28;48201;-59
2022/01/30 03:01:18;;;;;;;;;11.50;10.25;;;;;12.66;68.08;102577.81;2079109;28;48246;-60
2022/01/30 03:02:18;;;;;;;;;9.67;8.67;;;;;12.65;68.09;102578.72;2078828;28;47709;-60
2022/01/30 03:03:18;;;;;;;;;14.00;11.67;;;;;12.65;68.06;102585.81;2070599;28;47758;-61
2022/01/30 03:04:19;;;;;;;;;13.33;12.67;;;;;12.63;68.13;102582.28;2070496;28;47871;-60
2022/01/30 03:05:19;;;;;;;;;12.00;12.00;;;;;12.63;68.03;102579.59;2079107;28;47435;-61
2022/01/30 03:06:20;;;;;;;;;11.00;11.00;;;;;12.62;67.95;102570.72;2078678;28;47913;-57
2022/01/30 03:07:20;;;;;;;;;13.00;12.33;;;;;12.64;68.09;102576.94;2079017;28;47178;-61
2022/01/30 03:08:21;;;;;;;;;11.00;9.33;;;;;12.63;67.76;102569.84;2078473;28;47719;-58
2022/01/30 03:09:21;;;;;;;;;11.33;10.00;;;;;12.63;67.96;102569.84;2079266;28;47921;-60
2022/01/30 03:10:22;;;;;;;;;11.33;10.33;;;;;12.62;68.02;102573.41;2078519;28;47928;-61
2022/01/30 03:11:23;;;;;;;;;11.00;10.00;;;;;12.62;68.10;102572.50;2078763;28;47060;-61
2022/01/30 03:12:23;;;;;;;;;12.00;11.25;;;;;12.62;68.04;102575.19;2078893;28;47537;-61
2022/01/30 03:13:24;;;;;;;;;11.33;10.00;;;;;12.63;68.14;102583.16;2079410;28;46371;-62
2022/01/30 03:14:24;;;;;;;;;11.33;11.33;;;;;12.62;67.95;102586.72;2078883;28;47639;-59
2022/01/30 03:15:25;;;;;;;;;13.00;13.00;;;;;12.63;68.13;102587.59;2070895;28;47840;-60
2022/01/30 03:16:25;;;;;;;;;11.67;11.00;;;;;12.62;68.02;102583.16;2070609;28;47769;-60
2022/01/30 03:17:26;;;;;;;;;11.00;10.00;;;;;12.62;68.00;102573.41;2081995;28;47491;-59
2022/01/30 03:18:26;;;;;;;;;11.33;8.67;;;;;12.63;67.98;102575.16;2096344;28;47863;-59
2022/01/30 03:19:26;;;;;;;;;8.33;8.33;;;;;12.63;67.99;102571.63;2096847;28;47395;-58
2022/01/30 03:20:27;;;;;;;;;8.00;7.33;;;;;12.63;67.93;102576.94;2096299;28;47713;-59
2022/01/30 03:21:27;;;;;;;;;13.33;11.00;;;;;12.62;67.92;102581.38;2096029;28;48134;-61
2022/01/30 03:22:28;;;;;;;;;9.67;9.67;;;;;12.62;67.84;102581.38;2096608;28;47944;-61
2022/01/30 03:23:29;;;;;;;;;10.33;10.00;;;;;12.62;68.04;102580.50;2070213;28;47827;-61
2022/01/30 03:24:35;;;;;;;;;12.75;11.75;;;;;12.60;68.02;102580.50;2070654;28;47011;-59
2022/01/30 03:25:35;;;;;;;;;12.50;10.25;;;;;12.60;68.04;102583.16;2088087;28;47465;-58
2022/01/30 03:26:39;;;;;;;;;12.00;11.00;;;;;12.61;67.81;102576.94;2088688;28;47297;-60
2022/01/30 03:27:44;;;;;;;;;15.25;12.75;;;;;12.61;67.89;102581.41;2096966;28;47559;-59
2022/01/30 03:28:47;;;;;;;;;12.50;12.25;;;;;12.62;67.95;102583.16;2095952;28;47763;-59
2022/01/30 03:30:02;;;;;;;;;12.00;12.00;;;;;12.62;67.91;102580.50;2096059;28;47928;-60
2022/01/30 03:31:06;;;;;;;;;14.75;11.25;;;;;12.62;67.75;102581.38;2087483;28;46252;-59
2022/01/30 03:32:07;;;;;;;;;12.00;12.00;;;;;12.63;67.73;102587.59;2088039;28;47564;-59
2022/01/30 03:33:07;;;;;;;;;9.00;9.00;;;;;12.64;67.49;102589.38;2096429;28;47958;-61
2022/01/30 03:34:09;;;;;;;;;9.33;9.33;;;;;12.64;67.59;102592.03;2096559;28;47651;-60
2022/01/30 03:35:10;;;;;;;;;10.00;10.00;;;;;12.63;67.60;102595.59;2096140;28;47919;-59
2022/01/30 03:36:10;;;;;;;;;13.00;9.33;;;;;12.63;67.55;102596.47;2096598;28;47050;-61
2022/01/30 03:37:11;;;;;;;;;13.67;12.00;;;;;12.63;67.56;102600.91;2096461;28;47214;-61
2022/01/30 03:38:11;;;;;;;;;10.00;10.00;;;;;12.62;67.49;102577.84;2096458;28;47951;-61
2022/01/30 03:39:12;;;;;;;;;11.67;10.33;;;;;12.62;67.64;102578.72;2096184;28;47451;-61
2022/01/30 03:40:12;;;;;;;;;11.00;11.00;;;;;12.63;67.46;102587.59;2096734;28;47638;-58
2022/01/30 03:41:13;;;;;;;;;8.00;7.00;;;;;12.61;66.64;102587.59;2096328;28;47775;-59
2022/01/30 03:42:13;;;;;;;;;7.33;7.33;;;;;12.61;65.82;102589.38;2096466;28;47330;-59
2022/01/30 03:43:14;;;;;;;;;9.00;8.67;;;;;12.59;65.41;102591.16;2087700;28;47560;-60
2022/01/30 03:44:15;;;;;;;;;6.67;5.33;;;;;12.57;64.41;102588.47;2087324;28;48006;-58
2022/01/30 03:45:16;;;;;;;;;4.75;4.00;;;;;12.55;63.81;102592.91;2095935;28;47609;-60
2022/01/30 03:46:21;;;;;;;;;4.00;3.33;;;;;12.52;63.24;102589.38;2096734;28;47575;-59
2022/01/30 03:47:24;;;;;;;;;8.00;5.75;;;;;12.51;63.23;102576.94;2096797;28;48068;-60
2022/01/30 03:48:25;;;;;;;;;5.75;4.25;;;;;12.49;63.03;102579.63;2096153;28;47977;-58
2022/01/30 03:49:26;;;;;;;;;5.67;3.33;;;;;12.47;63.02;102584.06;2096642;28;47421;-58
2022/01/30 03:50:26;;;;;;;;;3.00;3.00;;;;;12.46;62.15;102578.75;2096573;28;47200;-60
2022/01/30 03:51:26;;;;;;;;;7.00;4.33;;;;;12.45;62.13;102582.25;2096397;28;47485;-60
2022/01/30 03:52:27;;;;;;;;;5.00;3.00;;;;;12.42;61.89;102580.50;2096124;28;46812;-60
2022/01/30 03:53:27;;;;;;;;;3.00;3.00;;;;;12.41;62.43;102578.72;2096555;28;47486;-60
2022/01/30 03:54:29;;;;;;;;;5.33;4.00;;;;;12.40;61.50;102582.25;2096170;28;47951;-60
2022/01/30 03:55:30;;;;;;;;;2.00;2.00;;;;;12.37;61.24;102580.50;2096028;28;47810;-60
2022/01/30 03:56:30;;;;;;;;;4.00;3.33;;;;;12.36;61.61;102580.50;2096296;28;47725;-59
2022/01/30 03:57:30;;;;;;;;;2.00;2.00;;;;;12.35;61.47;102592.94;2096688;28;47880;-59
2022/01/30 03:58:32;;;;;;;;;4.00;4.00;;;;;12.33;61.30;102589.38;2096266;28;47826;-57
2022/01/30 03:59:33;;;;;;;;;4.25;3.25;;;;;12.32;61.73;102595.59;2096235;28;47710;-59
2022/01/30 04:00:33;;;;;;;;;4.00;4.00;;;;;12.31;61.24;102588.47;2096021;28;47717;-58
2022/01/30 04:01:35;;;;;;;;;2.67;2.67;;;;;12.31;60.69;102584.91;2096802;28;47537;-60
2022/01/30 04:02:35;;;;;;;;;2.00;2.00;;;;;12.29;61.11;102589.34;2096165;28;47553;-57
2022/01/30 04:03:36;;;;;;;;;3.33;2.33;;;;;12.28;60.91;102584.91;2096754;28;47303;-60
2022/01/30 04:04:36;;;;;;;;;4.00;4.00;;;;;12.29;60.94;102589.34;2096307;28;47671;-60
2022/01/30 04:05:37;;;;;;;;;0.00;0.00;;;;;12.28;60.40;102587.59;2096336;28;47716;-60
2022/01/30 04:06:38;;;;;;;;;4.00;3.33;;;;;12.27;60.43;102589.34;2096514;28;46383;-60
2022/01/30 04:07:38;;;;;;;;;4.00;3.00;;;;;12.27;60.43;102591.13;2096206;28;47595;-60
2022/01/30 04:08:39;;;;;;;;;2.00;2.00;;;;;12.26;60.29;102592.91;2095901;28;47946;-60
2022/01/30 04:09:40;;;;;;;;;5.25;4.00;;;;;12.26;60.48;102595.56;2096435;28;48050;-60
2022/01/30 04:10:41;;;;;;;;;3.00;3.00;;;;;12.26;60.37;102592.03;2087473;28;47751;-60
2022/01/30 04:11:41;;;;;;;;;3.00;3.00;;;;;12.26;60.17;102597.34;2087889;28;46566;-61
2022/01/30 04:12:42;;;;;;;;;5.33;3.33;;;;;12.26;59.88;102600.00;2096030;28;47813;-61
2022/01/30 04:13:43;;;;;;;;;5.25;3.00;;;;;12.24;60.07;102600.00;2096500;28;47573;-62
2022/01/30 04:14:44;;;;;;;;;2.33;2.33;;;;;12.23;60.03;102592.91;2096103;28;47423;-59
2022/01/30 04:15:44;;;;;;;;;2.33;2.33;;;;;12.24;59.99;102591.13;2096320;28;47518;-59
2022/01/30 04:16:45;;;;;;;;;4.00;4.00;;;;;12.23;59.84;102594.69;2096329;28;48138;-60
2022/01/30 04:17:46;;;;;;;;;3.75;3.25;;;;;12.22;59.57;102596.47;2096647;28;47952;-58
2022/01/30 04:18:46;;;;;;;;;5.00;3.33;;;;;12.23;59.60;102600.00;2087548;28;47507;-59
2022/01/30 04:19:47;;;;;;;;;4.00;3.00;;;;;12.21;59.40;102596.47;2087263;28;47311;-59
2022/01/30 04:20:50;;;;;;;;;3.00;3.00;;;;;12.21;59.47;102601.78;2096142;28;47321;-55
2022/01/30 04:21:50;;;;;;;;;3.25;2.75;;;;;12.20;59.33;102598.25;2096825;28;47455;-59
2022/01/30 04:22:51;;;;;;;;;5.67;3.00;;;;;12.20;59.36;102594.69;2096091;28;47968;-59
2022/01/30 04:23:51;;;;;;;;;4.33;2.00;;;;;12.20;59.35;102600.00;2096105;28;47150;-60
2022/01/30 04:24:52;;;;;;;;;4.00;2.67;;;;;12.19;59.40;102592.88;2096270;28;47693;-59
2022/01/30 04:25:52;;;;;;;;;4.00;3.33;;;;;12.18;59.38;102601.75;2096175;28;47344;-59
2022/01/30 04:26:52;;;;;;;;;3.00;3.00;;;;;12.18;59.33;102601.75;2096086;28;47735;-61
2022/01/30 04:27:53;;;;;;;;;2.00;2.00;;;;;12.18;59.40;102604.41;2096253;28;47872;-60
2022/01/30 04:28:54;;;;;;;;;4.33;2.00;;;;;12.17;59.20;102599.97;2096253;28;47712;-60
2022/01/30 04:29:54;;;;;;;;;3.00;2.67;;;;;12.18;59.25;102609.75;2095951;28;47455;-61
2022/01/30 04:30:55;;;;;;;;;3.00;3.00;;;;;12.17;59.21;102606.19;2096161;28;47696;-61
2022/01/30 04:31:56;;;;;;;;;5.67;3.00;;;;;12.16;59.04;102601.75;2096475;28;47762;-61
2022/01/30 04:32:57;;;;;;;;;2.33;1.67;;;;;12.18;58.95;102607.97;2096174;28;48059;-57
2022/01/30 04:33:57;;;;;;;;;2.00;2.00;;;;;12.16;59.19;102601.75;2096089;28;48239;-60
2022/01/30 04:35:00;;;;;;;;;5.50;4.00;;;;;12.16;58.90;102600.88;2087285;28;47482;-61
2022/01/30 04:36:07;;;;;;;;;6.00;5.00;;;;;12.16;59.11;102596.44;2087307;28;48399;-59
2022/01/30 04:37:19;;;;;;;;;3.25;2.50;;;;;12.16;58.75;102607.09;2096297;28;47617;-59
2022/01/30 04:38:25;;;;;;;;;3.00;3.00;;;;;12.16;58.76;102615.06;2096163;28;47783;-58
2022/01/30 04:40:07;;;;;;;;;2.75;2.25;;;;;12.16;58.89;102615.06;2096189;28;48017;-59
2022/01/30 04:41:27;;;;;;;;;4.00;1.50;;;;;12.15;58.57;102602.66;2095867;28;47807;-59
2022/01/30 04:52:02;;;;;;;;;2.50;2.50;;;;;12.14;58.37;102608.84;2096212;28;47921;-59
2022/01/30 04:58:21;;;;;;;;;4.25;3.00;;;;;12.04;58.04;102621.25;2069909;28;47406;-59
2022/01/30 05:00:54;;;;;;;;;2.75;2.75;;;;;12.04;57.89;102623.91;2070070;28;48034;-60
2022/01/30 05:06:29;;;;;;;;;5.00;3.00;;;;;12.03;57.49;102622.13;2071275;28;47731;-58
2022/01/30 05:07:33;;;;;;;;;3.50;3.00;;;;;12.02;57.69;102624.78;2071545;28;47663;-59
2022/01/30 05:08:34;;;;;;;;;2.25;2.25;;;;;12.02;57.86;102619.47;2071776;28;47915;-59
2022/01/30 05:09:34;;;;;;;;;4.00;3.33;;;;;12.02;57.92;102617.69;2071829;28;47542;-61
2022/01/30 05:10:35;;;;;;;;;2.00;2.00;;;;;12.01;57.61;102607.94;2071334;28;48386;-61
2022/01/30 05:11:35;;;;;;;;;2.67;2.67;;;;;12.02;57.82;102620.34;2071456;28;47433;-61
2022/01/30 05:12:48;;;;;;;;;3.33;3.33;;;;;12.03;57.86;102619.47;2071631;28;47641;-59
2022/01/30 05:13:50;;;;;;;;;5.00;3.25;;;;;12.04;57.50;102623.03;2071764;28;47751;-60
2022/01/30 05:14:51;;;;;;;;;3.75;3.75;;;;;12.03;57.59;102616.81;2071322;28;47448;-60
2022/01/30 05:15:52;;;;;;;;;4.67;3.00;;;;;12.04;57.57;102620.34;2071484;28;47846;-60
2022/01/30 05:16:53;;;;;;;;;5.00;3.75;;;;;12.04;57.46;102617.69;2071436;28;48035;-57
2022/01/30 05:17:53;;;;;;;;;3.00;2.00;;;;;12.03;57.60;102635.44;2071797;28;47833;-60
2022/01/30 05:18:56;;;;;;;;;2.67;2.67;;;;;12.04;57.72;102631.00;2072126;28;48011;-59
2022/01/30 05:19:56;;;;;;;;;2.50;2.50;;;;;12.03;57.41;102635.44;2071350;28;47462;-59
2022/01/30 05:20:57;;;;;;;;;3.67;3.00;;;;;12.04;57.54;102625.69;2071579;28;47368;-59
2022/01/30 05:21:59;;;;;;;;;4.00;4.00;;;;;12.04;57.42;102623.03;2071594;28;47609;-59
2022/01/30 05:22:59;;;;;;;;;3.00;2.25;;;;;12.03;57.67;102622.13;2071296;28;47857;-61
2022/01/30 05:24:00;;;;;;;;;3.33;3.33;;;;;12.04;57.25;102628.34;2071793;28;45614;-58
2022/01/30 05:25:01;;;;;;;;;3.33;2.00;;;;;12.03;57.53;102627.44;2071483;28;47098;-60
2022/01/30 05:26:07;;;;;;;;;4.50;4.50;;;;;12.03;57.21;102632.78;2071488;28;47257;-61
2022/01/30 05:27:08;;;;;;;;;2.00;2.00;;;;;12.03;57.34;102627.44;2071356;28;47921;-60
2022/01/30 05:28:09;;;;;;;;;6.00;3.75;;;;;12.04;57.54;102633.66;2071609;28;47645;-59
2022/01/30 05:29:09;;;;;;;;;7.33;4.00;;;;;12.04;57.33;102641.66;2071491;28;47655;-59
2022/01/30 05:30:10;;;;;;;;;3.67;3.00;;;;;12.04;57.49;102644.31;2071416;28;47514;-60
2022/01/30 05:31:11;;;;;;;;;4.25;4.25;;;;;12.03;57.25;102646.09;2071872;28;47567;-60
2022/01/30 05:32:12;;;;;;;;;3.33;3.00;;;;;12.03;57.12;102640.75;2071295;28;47722;-60
2022/01/30 05:33:13;;;;;;;;;2.75;2.75;;;;;12.02;57.17;102644.31;2078696;28;47669;-59
2022/01/30 05:34:13;;;;;;;;;4.00;2.00;;;;;12.04;57.23;102645.19;2084993;28;47360;-59
2022/01/30 05:35:15;;;;;;;;;3.67;3.33;;;;;12.03;57.35;102647.84;2079457;28;47028;-59